Time;durP1;ratioP1;P1;durP2;ratioP2;P2;SDS_P1;SDS_P2;PMS_P1;PMS_P2;Temp;Humidity;BMP_temperature;BMP_pressure;BME280_temperature;BME280_humidity;BME280_pressure;Samples;Min_cycle;Max_cycle;Signal;HPM_P1;HPM_P2
2023/08/12 00:00:19;;;;;;;31.83;25.85;;;;;;;;;;4969743;28;20026;-58
2023/08/12 00:02:45;;;;;;;32.28;25.70;;;;;;;;;;4969808;28;20023;-58
2023/08/12 00:05:11;;;;;;;37.08;27.48;;;;;;;;;;4967834;28;20031;-57
2023/08/12 00:07:38;;;;;;;37.03;29.08;;;;;;;;;;4969639;28;20029;-56
2023/08/12 00:10:04;;;;;;;38.25;28.25;;;;;;;;;;4969722;28;20027;-56
2023/08/12 00:12:32;;;;;;;39.85;28.48;;;;;;;;;;4969709;28;20031;-55
2023/08/12 00:14:58;;;;;;;37.22;28.05;;;;;;;;;;4969156;28;20491;-56
2023/08/12 00:17:24;;;;;;;36.47;28.10;;;;;;;;;;4969553;28;20045;-57
2023/08/12 00:19:50;;;;;;;36.65;28.52;;;;;;;;;;4969634;28;20031;-55
2023/08/12 00:22:16;;;;;;;35.95;27.92;;;;;;;;;;4969314;28;20073;-57
2023/08/12 00:24:42;;;;;;;36.50;28.10;;;;;;;;;;4969271;28;20073;-57
2023/08/12 00:27:08;;;;;;;36.00;26.65;;;;;;;;;;4971656;28;20038;-57
2023/08/12 00:29:34;;;;;;;37.13;29.23;;;;;;;;;;4971800;28;20111;-57
2023/08/12 00:32:01;;;;;;;37.80;28.85;;;;;;;;;;4972962;28;20372;-57
2023/08/12 00:34:27;;;;;;;36.15;28.02;;;;;;;;;;4972132;28;20047;-57
2023/08/12 00:36:53;;;;;;;34.33;26.80;;;;;;;;;;4972785;28;20073;-57
2023/08/12 00:39:19;;;;;;;36.67;27.13;;;;;;;;;;4972755;28;20027;-57
2023/08/12 00:41:45;;;;;;;33.83;26.95;;;;;;;;;;4972673;28;20402;-57
2023/08/12 00:44:11;;;;;;;33.60;25.80;;;;;;;;;;4972470;28;20034;-59
2023/08/12 00:46:38;;;;;;;35.13;27.70;;;;;;;;;;4972078;28;20117;-54
2023/08/12 00:49:05;;;;;;;35.92;28.40;;;;;;;;;;4972578;28;20367;-55
2023/08/12 00:51:31;;;;;;;33.80;27.05;;;;;;;;;;4972597;28;20394;-52
2023/08/12 00:53:58;;;;;;;33.28;27.50;;;;;;;;;;4972144;28;20118;-58
2023/08/12 00:56:24;;;;;;;34.38;28.73;;;;;;;;;;4972452;28;20131;-57
2023/08/12 00:58:50;;;;;;;33.55;27.60;;;;;;;;;;4972470;28;20027;-58
2023/08/12 01:01:17;;;;;;;31.42;27.13;;;;;;;;;;4971227;28;20388;-57
2023/08/12 01:03:43;;;;;;;32.25;26.25;;;;;;;;;;4972352;28;20088;-57
2023/08/12 01:06:09;;;;;;;31.88;26.77;;;;;;;;;;4971961;28;20480;-58
2023/08/12 01:08:36;;;;;;;32.28;25.25;;;;;;;;;;4972373;28;20038;-56
2023/08/12 01:11:15;;;;;;;31.60;25.42;;;;;;;;;;4972517;28;20022;-58
2023/08/12 01:13:50;;;;;;;33.97;26.60;;;;;;;;;;4972011;28;20042;-57
2023/08/12 01:16:18;;;;;;;31.60;26.23;;;;;;;;;;4972048;28;20049;-57
2023/08/12 01:18:44;;;;;;;29.60;26.48;;;;;;;;;;4972204;28;20034;-58
2023/08/12 01:21:12;;;;;;;36.40;27.63;;;;;;;;;;4972070;28;20500;-56
2023/08/12 01:23:39;;;;;;;34.97;29.73;;;;;;;;;;4972117;28;20049;-57
2023/08/12 01:26:05;;;;;;;32.90;28.35;;;;;;;;;;4971770;28;20540;-58
2023/08/12 01:28:31;;;;;;;30.83;26.48;;;;;;;;;;4971944;28;20106;-57
2023/08/12 01:31:01;;;;;;;32.40;27.42;;;;;;;;;;4971993;28;20114;-57
2023/08/12 01:33:28;;;;;;;30.15;26.95;;;;;;;;;;4971827;28;20080;-58
2023/08/12 01:36:02;;;;;;;31.60;26.67;;;;;;;;;;4971201;28;20031;-55
2023/08/12 01:38:29;;;;;;;33.83;27.88;;;;;;;;;;4970142;28;20384;-56
2023/08/12 01:40:55;;;;;;;33.42;27.42;;;;;;;;;;4971844;28;20114;-57
2023/08/12 01:43:21;;;;;;;35.35;31.67;;;;;;;;;;4971813;28;20031;-56
2023/08/12 01:45:47;;;;;;;32.67;29.38;;;;;;;;;;4971516;28;20101;-58
2023/08/12 01:48:13;;;;;;;31.40;28.05;;;;;;;;;;4970157;28;20112;-58
2023/08/12 01:50:39;;;;;;;32.78;29.38;;;;;;;;;;4970584;28;20027;-55
2023/08/12 01:53:05;;;;;;;34.65;31.13;;;;;;;;;;4971749;28;20121;-57
2023/08/12 01:55:31;;;;;;;33.30;29.70;;;;;;;;;;4971401;28;20495;-57
2023/08/12 01:57:57;;;;;;;33.65;30.00;;;;;;;;;;4971526;28;20104;-56
2023/08/12 02:00:23;;;;;;;33.60;30.02;;;;;;;;;;4971716;28;20034;-56
2023/08/12 02:02:49;;;;;;;32.33;28.95;;;;;;;;;;4971525;28;20027;-57
2023/08/12 02:05:15;;;;;;;32.47;29.17;;;;;;;;;;4971227;28;20023;-57
2023/08/12 02:07:41;;;;;;;33.47;30.05;;;;;;;;;;4971379;28;20019;-56
2023/08/12 02:10:07;;;;;;;33.05;29.58;;;;;;;;;;4970343;28;20501;-58
2023/08/12 02:12:34;;;;;;;33.70;29.92;;;;;;;;;;4971407;28;20093;-58
2023/08/12 02:15:00;;;;;;;33.05;29.33;;;;;;;;;;4971111;28;20058;-56
2023/08/12 02:17:26;;;;;;;34.97;30.30;;;;;;;;;;4970719;28;20073;-56
2023/08/12 02:19:52;;;;;;;35.40;31.25;;;;;;;;;;4969829;28;20031;-58
2023/08/12 02:22:17;;;;;;;38.47;30.52;;;;;;;;;;4971102;28;20023;-56
2023/08/12 02:24:43;;;;;;;34.00;29.52;;;;;;;;;;5039202;28;20451;-57
2023/08/12 02:27:09;;;;;;;31.75;28.42;;;;;;;;;;5072625;28;20119;-58
2023/08/12 02:29:35;;;;;;;32.92;28.65;;;;;;;;;;5072652;28;20670;-56
2023/08/12 02:32:01;;;;;;;34.20;30.17;;;;;;;;;;5072599;28;20048;-57
2023/08/12 02:34:27;;;;;;;31.58;28.25;;;;;;;;;;5052529;28;20437;-58
2023/08/12 02:36:53;;;;;;;32.28;28.77;;;;;;;;;;4970919;28;20034;-57
2023/08/12 02:39:19;;;;;;;32.60;29.00;;;;;;;;;;4970865;28;20034;-58
2023/08/12 02:41:45;;;;;;;32.80;29.30;;;;;;;;;;4970354;28;20062;-58
2023/08/12 02:44:11;;;;;;;33.83;28.48;;;;;;;;;;4970710;28;20030;-58
2023/08/12 02:46:37;;;;;;;35.05;30.55;;;;;;;;;;4970519;28;20034;-54
2023/08/12 02:49:03;;;;;;;34.03;30.40;;;;;;;;;;4970226;28;20484;-56
2023/08/12 02:51:29;;;;;;;33.17;29.58;;;;;;;;;;4970390;28;20031;-59
2023/08/12 02:53:55;;;;;;;33.92;28.60;;;;;;;;;;4970616;28;20061;-56
2023/08/12 02:56:21;;;;;;;33.53;29.42;;;;;;;;;;4970653;28;20422;-57
2023/08/12 02:58:47;;;;;;;33.67;29.63;;;;;;;;;;4970756;28;20050;-58
2023/08/12 03:01:13;;;;;;;33.08;28.35;;;;;;;;;;4970628;28;20407;-58
2023/08/12 03:03:39;;;;;;;32.05;28.02;;;;;;;;;;4970485;28;20080;-56
2023/08/12 03:06:05;;;;;;;33.53;28.48;;;;;;;;;;4970309;28;20054;-57
2023/08/12 03:08:31;;;;;;;30.85;27.50;;;;;;;;;;4970623;28;20027;-57
2023/08/12 03:11:04;;;;;;;33.65;27.77;;;;;;;;;;4970375;28;20084;-56
2023/08/12 03:13:30;;;;;;;36.53;28.63;;;;;;;;;;4970480;28;20023;-56
2023/08/12 03:15:56;;;;;;;32.72;27.98;;;;;;;;;;4970251;28;20450;-57
2023/08/12 03:18:22;;;;;;;34.58;28.48;;;;;;;;;;4970307;28;20038;-57
2023/08/12 03:20:48;;;;;;;33.20;28.73;;;;;;;;;;4970162;28;20027;-58
2023/08/12 03:23:15;;;;;;;34.75;28.35;;;;;;;;;;4968765;28;20084;-58
2023/08/12 03:25:41;;;;;;;33.50;29.63;;;;;;;;;;4969714;28;20037;-55
2023/08/12 03:28:06;;;;;;;35.72;29.13;;;;;;;;;;4970175;28;20102;-58
2023/08/12 03:30:32;;;;;;;35.08;30.25;;;;;;;;;;4970132;28;20471;-58
2023/08/12 03:32:58;;;;;;;33.63;29.63;;;;;;;;;;4970039;28;20084;-57
2023/08/12 03:35:24;;;;;;;34.95;29.75;;;;;;;;;;4969624;28;20109;-58
2023/08/12 03:37:52;;;;;;;35.17;29.08;;;;;;;;;;4968546;28;20479;-58
2023/08/12 03:40:18;;;;;;;34.30;29.67;;;;;;;;;;4969906;28;20015;-58
2023/08/12 03:42:44;;;;;;;37.22;29.95;;;;;;;;;;4969850;28;20041;-58
2023/08/12 03:45:10;;;;;;;37.72;30.35;;;;;;;;;;4969469;28;20483;-56
2023/08/12 03:47:36;;;;;;;35.78;30.48;;;;;;;;;;4969737;28;20023;-51
2023/08/12 03:50:02;;;;;;;39.20;32.75;;;;;;;;;;5068228;28;20037;-57
2023/08/12 03:52:28;;;;;;;36.15;31.45;;;;;;;;;;5072235;28;20103;-53
2023/08/12 03:54:54;;;;;;;35.83;31.33;;;;;;;;;;5071582;28;20032;-53
2023/08/12 03:57:20;;;;;;;38.45;32.63;;;;;;;;;;5071442;28;20074;-57
2023/08/12 03:59:46;;;;;;;37.22;30.90;;;;;;;;;;5071876;28;20480;-56
2023/08/12 04:02:12;;;;;;;36.08;31.13;;;;;;;;;;5072663;28;20047;-57
2023/08/12 04:04:38;;;;;;;36.65;30.58;;;;;;;;;;4970976;28;20105;-57
2023/08/12 04:07:04;;;;;;;39.15;31.02;;;;;;;;;;4967044;28;20495;-56
2023/08/12 04:09:30;;;;;;;36.70;31.52;;;;;;;;;;4973145;28;20019;-56
2023/08/12 04:11:56;;;;;;;43.63;33.85;;;;;;;;;;4973205;28;20773;-56
2023/08/12 04:14:22;;;;;;;41.60;33.90;;;;;;;;;;4972758;28;20023;-57
2023/08/12 04:16:48;;;;;;;39.40;34.95;;;;;;;;;;4973203;28;20076;-59
2023/08/12 04:19:14;;;;;;;44.40;34.42;;;;;;;;;;4973255;28;20106;-55
2023/08/12 04:21:40;;;;;;;40.90;32.78;;;;;;;;;;4972128;28;20497;-55
2023/08/12 04:24:06;;;;;;;42.22;35.03;;;;;;;;;;4972995;28;20035;-55
2023/08/12 04:26:32;;;;;;;42.17;34.25;;;;;;;;;;4971122;28;20464;-56
2023/08/12 04:28:58;;;;;;;39.33;31.60;;;;;;;;;;4973022;28;20053;-56
2023/08/12 04:31:24;;;;;;;46.30;35.78;;;;;;;;;;4973267;28;20155;-54
2023/08/12 04:33:52;;;;;;;42.95;37.60;;;;;;;;;;4973105;28;20027;-53
2023/08/12 04:36:18;;;;;;;49.85;40.97;;;;;;;;;;4969841;28;20034;-56
2023/08/12 04:38:44;;;;;;;45.53;35.50;;;;;;;;;;4972894;28;20019;-57
2023/08/12 04:41:10;;;;;;;44.40;35.53;;;;;;;;;;4973078;28;20049;-55
2023/08/12 04:43:36;;;;;;;44.92;36.30;;;;;;;;;;4973076;28;20129;-57
2023/08/12 04:46:02;;;;;;;45.55;35.13;;;;;;;;;;4970971;28;20031;-57
2023/08/12 04:48:28;;;;;;;40.30;34.28;;;;;;;;;;4972640;28;20690;-56
2023/08/12 04:50:59;;;;;;;43.35;35.50;;;;;;;;;;4972439;28;20098;-56
2023/08/12 04:53:25;;;;;;;43.65;34.45;;;;;;;;;;4972653;28;20031;-57
2023/08/12 04:55:51;;;;;;;43.80;35.78;;;;;;;;;;4972425;28;20038;-57
2023/08/12 04:58:17;;;;;;;44.70;35.17;;;;;;;;;;4972479;28;20050;-58
2023/08/12 05:00:43;;;;;;;43.67;36.10;;;;;;;;;;4972150;28;20070;-57
2023/08/12 05:03:09;;;;;;;41.10;35.78;;;;;;;;;;4972493;28;20501;-57
2023/08/12 05:05:36;;;;;;;45.28;37.25;;;;;;;;;;4972037;28;20076;-57
2023/08/12 05:08:02;;;;;;;46.72;36.58;;;;;;;;;;4971104;28;20054;-57
2023/08/12 05:10:28;;;;;;;43.00;35.45;;;;;;;;;;4972454;28;20062;-57
2023/08/12 05:12:54;;;;;;;43.55;36.20;;;;;;;;;;4970889;28;20050;-56
2023/08/12 05:15:20;;;;;;;50.28;36.85;;;;;;;;;;4971849;28;20474;-57
2023/08/12 05:17:46;;;;;;;44.22;36.05;;;;;;;;;;4972166;28;20106;-57
2023/08/12 05:20:12;;;;;;;40.25;34.83;;;;;;;;;;4968961;28;20049;-57
2023/08/12 05:22:38;;;;;;;39.92;34.20;;;;;;;;;;4970625;28;20111;-57
2023/08/12 05:25:05;;;;;;;43.50;37.30;;;;;;;;;;4968775;28;20097;-57
2023/08/12 05:27:31;;;;;;;41.45;34.65;;;;;;;;;;4968943;28;20027;-57
2023/08/12 05:29:57;;;;;;;40.47;35.00;;;;;;;;;;4972098;28;20030;-55
2023/08/12 05:32:23;;;;;;;39.78;35.47;;;;;;;;;;4971859;28;20023;-57
2023/08/12 05:34:50;;;;;;;42.22;37.20;;;;;;;;;;4971670;28;20499;-57
2023/08/12 05:37:16;;;;;;;40.72;36.38;;;;;;;;;;4971984;28;20039;-56
2023/08/12 05:39:42;;;;;;;41.10;34.13;;;;;;;;;;4971797;28;20387;-58
2023/08/12 05:42:08;;;;;;;41.53;34.65;;;;;;;;;;4970488;28;20019;-57
2023/08/12 05:44:34;;;;;;;41.13;36.72;;;;;;;;;;4971301;28;20058;-57
2023/08/12 05:47:00;;;;;;;40.95;34.72;;;;;;;;;;4972712;28;20031;-58
2023/08/12 05:49:26;;;;;;;42.20;36.53;;;;;;;;;;4971833;28;20027;-57
2023/08/12 05:51:52;;;;;;;41.42;35.83;;;;;;;;;;4971615;28;20106;-57
2023/08/12 05:54:18;;;;;;;43.50;37.53;;;;;;;;;;4971127;28;20361;-57
2023/08/12 05:56:44;;;;;;;41.28;36.72;;;;;;;;;;4971503;28;20034;-57
2023/08/12 05:59:10;;;;;;;41.72;37.00;;;;;;;;;;4971166;28;20031;-57
2023/08/12 06:01:36;;;;;;;42.08;36.88;;;;;;;;;;4971788;28;20043;-55
2023/08/12 06:04:02;;;;;;;43.45;36.30;;;;;;;;;;4971369;28;20118;-53
2023/08/12 06:06:28;;;;;;;38.92;34.78;;;;;;;;;;4971312;28;20018;-56
2023/08/12 06:08:54;;;;;;;38.72;34.60;;;;;;;;;;4972055;28;20092;-54
2023/08/12 06:11:20;;;;;;;38.65;33.55;;;;;;;;;;4971954;28;20051;-55
2023/08/12 06:13:46;;;;;;;39.55;34.55;;;;;;;;;;4971512;28;20061;-54
2023/08/12 06:16:12;;;;;;;38.67;33.95;;;;;;;;;;4971880;28;20034;-53
2023/08/12 06:18:38;;;;;;;40.42;34.67;;;;;;;;;;4972198;28;20037;-58
2023/08/12 06:21:04;;;;;;;41.00;34.17;;;;;;;;;;4971915;28;20027;-56
2023/08/12 06:23:30;;;;;;;38.30;33.13;;;;;;;;;;4970609;28;20434;-54
2023/08/12 06:25:56;;;;;;;39.17;34.38;;;;;;;;;;4969612;28;20122;-57
2023/08/12 06:28:22;;;;;;;41.83;35.42;;;;;;;;;;4971379;28;20479;-58
2023/08/12 06:30:48;;;;;;;39.50;35.03;;;;;;;;;;4971407;28;20101;-58
2023/08/12 06:33:14;;;;;;;41.88;34.50;;;;;;;;;;4971309;28;20025;-56
2023/08/12 06:35:41;;;;;;;38.20;34.05;;;;;;;;;;4969491;28;20026;-57
2023/08/12 06:38:08;;;;;;;38.45;34.35;;;;;;;;;;4968636;28;20391;-57
2023/08/12 06:40:34;;;;;;;36.58;32.67;;;;;;;;;;4967996;28;20037;-58
2023/08/12 06:43:00;;;;;;;35.47;31.63;;;;;;;;;;4971064;28;20026;-57
2023/08/12 06:45:26;;;;;;;36.30;30.60;;;;;;;;;;4970240;28;20106;-57
2023/08/12 06:47:52;;;;;;;34.67;30.98;;;;;;;;;;4970641;28;20106;-56
2023/08/12 06:50:18;;;;;;;35.10;31.25;;;;;;;;;;4970791;28;20018;-57
2023/08/12 06:52:44;;;;;;;35.17;29.42;;;;;;;;;;4966811;28;20089;-57
2023/08/12 06:55:10;;;;;;;36.40;28.38;;;;;;;;;;4969925;28;20552;-54
2023/08/12 06:57:36;;;;;;;31.08;25.00;;;;;;;;;;4970287;28;20022;-56
2023/08/12 07:00:03;;;;;;;32.97;25.92;;;;;;;;;;4970756;28;20030;-53
2023/08/12 07:02:29;;;;;;;33.17;25.67;;;;;;;;;;4966162;28;20641;-58
2023/08/12 07:04:55;;;;;;;30.55;25.13;;;;;;;;;;4951018;28;20117;-57
2023/08/12 07:07:21;;;;;;;33.63;25.92;;;;;;;;;;4951145;28;20476;-56
2023/08/12 07:09:47;;;;;;;31.70;24.67;;;;;;;;;;4969162;28;20106;-57
2023/08/12 07:12:13;;;;;;;32.83;25.42;;;;;;;;;;4970275;28;20027;-56
2023/08/12 07:14:39;;;;;;;32.00;23.67;;;;;;;;;;4968903;28;20113;-57
2023/08/12 07:17:05;;;;;;;31.55;25.00;;;;;;;;;;4969842;28;20066;-55
2023/08/12 07:19:31;;;;;;;33.08;23.50;;;;;;;;;;4970305;28;20031;-58
2023/08/12 07:21:57;;;;;;;31.35;23.05;;;;;;;;;;4969943;28;20092;-57
2023/08/12 07:24:23;;;;;;;31.30;23.38;;;;;;;;;;4969741;28;20386;-57
2023/08/12 07:26:49;;;;;;;30.95;24.23;;;;;;;;;;4969987;28;20029;-58
2023/08/12 07:29:15;;;;;;;31.70;23.88;;;;;;;;;;4968678;28;20038;-58
2023/08/12 07:31:40;;;;;;;30.10;22.50;;;;;;;;;;4970165;28;20094;-60
2023/08/12 07:34:06;;;;;;;30.98;22.33;;;;;;;;;;4968961;28;20158;-59
2023/08/12 07:36:33;;;;;;;31.35;21.98;;;;;;;;;;4970005;28;20027;-60
2023/08/12 07:38:59;;;;;;;31.98;23.52;;;;;;;;;;4969970;28;20517;-60
2023/08/12 07:41:27;;;;;;;29.00;22.52;;;;;;;;;;4969947;28;20081;-58
2023/08/12 07:43:54;;;;;;;33.75;23.30;;;;;;;;;;4968390;28;20175;-59
2023/08/12 07:46:20;;;;;;;36.03;25.48;;;;;;;;;;4969611;28;20046;-60
2023/08/12 07:48:46;;;;;;;30.80;23.60;;;;;;;;;;4969923;28;20107;-60
2023/08/12 07:51:12;;;;;;;32.25;23.25;;;;;;;;;;4969840;28;20117;-59
2023/08/12 07:53:38;;;;;;;30.02;23.52;;;;;;;;;;4969555;28;20027;-57
2023/08/12 07:56:04;;;;;;;35.72;25.25;;;;;;;;;;4969542;28;20062;-60
2023/08/12 07:58:30;;;;;;;33.03;24.98;;;;;;;;;;4969785;28;20031;-59
2023/08/12 08:00:56;;;;;;;30.40;22.80;;;;;;;;;;4969572;28;20096;-59
2023/08/12 08:03:22;;;;;;;32.60;24.83;;;;;;;;;;4969674;28;20471;-57
2023/08/12 08:05:48;;;;;;;32.53;24.70;;;;;;;;;;4968722;28;20096;-60
2023/08/12 08:08:14;;;;;;;30.77;23.85;;;;;;;;;;4969477;28;20026;-60
2023/08/12 08:10:40;;;;;;;28.52;21.05;;;;;;;;;;4969348;28;20027;-58
2023/08/12 08:13:06;;;;;;;29.20;22.00;;;;;;;;;;4968703;28;20368;-60
2023/08/12 08:15:32;;;;;;;26.35;20.27;;;;;;;;;;4967083;28;20038;-60
2023/08/12 08:17:58;;;;;;;25.50;18.88;;;;;;;;;;4962915;28;20083;-60
2023/08/12 08:20:24;;;;;;;28.98;20.20;;;;;;;;;;4969024;28;20027;-62
2023/08/12 08:22:50;;;;;;;27.08;20.33;;;;;;;;;;4969064;28;20495;-60
2023/08/12 08:25:16;;;;;;;26.90;18.25;;;;;;;;;;4969058;28;20027;-57
2023/08/12 08:27:42;;;;;;;26.50;18.45;;;;;;;;;;4969037;28;20034;-60
2023/08/12 08:30:09;;;;;;;23.77;16.27;;;;;;;;;;4969497;28;20387;-60
2023/08/12 08:32:34;;;;;;;24.75;17.25;;;;;;;;;;4968291;28;20209;-60
2023/08/12 08:35:00;;;;;;;23.17;15.43;;;;;;;;;;4969146;28;20030;-60
2023/08/12 08:37:26;;;;;;;22.27;15.02;;;;;;;;;;4968432;28;20038;-59
2023/08/12 08:39:52;;;;;;;24.08;15.35;;;;;;;;;;4968907;28;20026;-60
2023/08/12 08:42:20;;;;;;;22.58;14.38;;;;;;;;;;4969183;28;20418;-60
2023/08/12 08:44:46;;;;;;;23.58;15.32;;;;;;;;;;4969108;28;20027;-56
2023/08/12 08:47:13;;;;;;;22.75;14.10;;;;;;;;;;4971499;28;20031;-58
2023/08/12 08:49:40;;;;;;;20.40;12.50;;;;;;;;;;4971366;28;20504;-57
2023/08/12 08:52:06;;;;;;;20.30;11.95;;;;;;;;;;4971275;28;20045;-56
2023/08/12 08:54:32;;;;;;;23.05;11.57;;;;;;;;;;4972112;28;20503;-57
2023/08/12 08:56:58;;;;;;;18.35;11.38;;;;;;;;;;4972498;28;20110;-55
2023/08/12 08:59:24;;;;;;;18.10;10.18;;;;;;;;;;4973233;28;20039;-59
2023/08/12 09:01:52;;;;;;;19.73;9.45;;;;;;;;;;4972869;28;20495;-55
2023/08/12 09:04:19;;;;;;;20.15;10.35;;;;;;;;;;4972536;28;20102;-55
2023/08/12 09:06:45;;;;;;;18.15;9.70;;;;;;;;;;4972609;28;20080;-56
2023/08/12 09:09:13;;;;;;;17.17;10.43;;;;;;;;;;4972209;28;20076;-57
2023/08/12 09:11:40;;;;;;;18.63;10.50;;;;;;;;;;4972327;28;20031;-57
2023/08/12 09:14:06;;;;;;;20.70;11.60;;;;;;;;;;4971658;28;20038;-57
2023/08/12 09:16:32;;;;;;;17.33;9.90;;;;;;;;;;4971697;28;20419;-52
2023/08/12 09:18:58;;;;;;;17.42;9.43;;;;;;;;;;4971744;28;20034;-55
2023/08/12 09:21:24;;;;;;;17.88;9.60;;;;;;;;;;4972032;28;20530;-57
2023/08/12 09:23:50;;;;;;;20.40;9.88;;;;;;;;;;4972058;28;20045;-52
2023/08/12 09:26:20;;;;;;;15.80;8.38;;;;;;;;;;4971165;28;20027;-54
2023/08/12 09:28:47;;;;;;;18.95;9.23;;;;;;;;;;4972184;28;20023;-58
2023/08/12 09:31:42;;;;;;;17.05;8.73;;;;;;;;;;4972006;28;20027;-56
2023/08/12 09:34:08;;;;;;;21.83;10.48;;;;;;;;;;4975655;28;20156;-59
2023/08/12 09:36:34;;;;;;;18.48;9.68;;;;;;;;;;4971580;28;20106;-58
2023/08/12 09:39:01;;;;;;;20.63;10.40;;;;;;;;;;4971429;28;20034;-57
2023/08/12 09:41:28;;;;;;;19.58;10.80;;;;;;;;;;4971516;28;20584;-57
2023/08/12 09:43:54;;;;;;;17.63;9.95;;;;;;;;;;4971077;28;20058;-56
2023/08/12 09:46:21;;;;;;;18.10;10.52;;;;;;;;;;4970871;28;20107;-57
2023/08/12 09:48:47;;;;;;;20.80;9.90;;;;;;;;;;4971728;28;20023;-53
2023/08/12 09:51:13;;;;;;;20.40;10.02;;;;;;;;;;4971382;28;20100;-53
2023/08/12 09:53:41;;;;;;;17.52;9.18;;;;;;;;;;4971473;28;20105;-55
2023/08/12 09:56:08;;;;;;;18.43;9.33;;;;;;;;;;4970851;28;20038;-56
2023/08/12 09:58:37;;;;;;;16.52;8.75;;;;;;;;;;4968071;28;20031;-58
2023/08/12 10:01:04;;;;;;;16.85;8.20;;;;;;;;;;4963456;28;20026;-54
2023/08/12 10:03:31;;;;;;;18.95;9.77;;;;;;;;;;4964166;28;20027;-58
2023/08/12 10:05:58;;;;;;;19.23;9.52;;;;;;;;;;4968275;28;20019;-56
2023/08/12 10:08:24;;;;;;;16.40;8.73;;;;;;;;;;4967425;28;20458;-57
2023/08/12 10:10:50;;;;;;;20.10;8.82;;;;;;;;;;4970907;28;20019;-56
2023/08/12 10:13:17;;;;;;;17.08;8.15;;;;;;;;;;4970299;28;20035;-54
2023/08/12 10:15:43;;;;;;;18.05;8.73;;;;;;;;;;4970809;28;20027;-59
2023/08/12 10:18:09;;;;;;;16.92;8.07;;;;;;;;;;4970861;28;20106;-57
2023/08/12 10:20:36;;;;;;;17.98;8.40;;;;;;;;;;4970694;28;20034;-56
2023/08/12 10:23:03;;;;;;;17.83;7.85;;;;;;;;;;4970988;28;20117;-55
2023/08/12 10:25:34;;;;;;;18.25;8.00;;;;;;;;;;4970521;28;20022;-52
2023/08/12 10:28:00;;;;;;;16.85;8.32;;;;;;;;;;4971002;28;20245;-53
2023/08/12 10:30:28;;;;;;;17.23;8.90;;;;;;;;;;4969669;28;20172;-55
2023/08/12 10:32:54;;;;;;;;;;;;;;;;;;4971788;28;20352;-56
2023/08/12 10:35:20;;;;;;;17.90;8.13;;;;;;;;;;4626589;28;9999931;-56
2023/08/12 10:37:49;;;;;;;19.35;9.18;;;;;;;;;;4966975;28;20384;-56
2023/08/12 10:40:22;;;;;;;19.17;9.30;;;;;;;;;;4967633;28;20033;-51
2023/08/12 10:42:49;;;;;;;17.27;8.98;;;;;;;;;;4967778;28;20544;-57
2023/08/12 10:45:16;;;;;;;18.30;8.95;;;;;;;;;;4967222;28;20065;-55
2023/08/12 10:47:44;;;;;;;18.65;8.25;;;;;;;;;;4966099;28;20042;-52
2023/08/12 10:50:23;;;;;;;18.63;8.55;;;;;;;;;;4967724;28;20102;-55
2023/08/12 10:52:52;;;;;;;19.52;10.15;;;;;;;;;;4967232;28;20104;-55
2023/08/12 10:55:22;;;;;;;20.92;10.25;;;;;;;;;;4966969;28;20026;-55
2023/08/12 10:57:49;;;;;;;18.67;9.57;;;;;;;;;;4965851;28;20038;-54
2023/08/12 11:00:16;;;;;;;18.15;9.15;;;;;;;;;;4965883;28;20300;-49
2023/08/12 11:02:45;;;;;;;21.55;10.82;;;;;;;;;;4966904;28;20148;-57
2023/08/12 11:05:12;;;;;;;19.73;10.20;;;;;;;;;;4968289;28;20106;-54
2023/08/12 11:07:41;;;;;;;17.13;9.30;;;;;;;;;;4968340;28;20050;-55
2023/08/12 11:10:14;;;;;;;18.30;9.77;;;;;;;;;;4969770;28;20037;-51
2023/08/12 11:12:41;;;;;;;16.98;9.63;;;;;;;;;;4969998;28;20031;-56
2023/08/12 11:15:08;;;;;;;17.70;9.75;;;;;;;;;;4969990;28;20241;-52
2023/08/12 11:17:34;;;;;;;16.95;9.70;;;;;;;;;;4968797;28;20023;-52
2023/08/12 11:20:01;;;;;;;17.45;9.45;;;;;;;;;;4970119;28;20027;-57
2023/08/12 11:22:27;;;;;;;17.23;8.65;;;;;;;;;;4969710;28;20046;-52
2023/08/12 11:24:54;;;;;;;16.05;7.97;;;;;;;;;;4970228;28;20468;-57
2023/08/12 11:27:20;;;;;;;15.80;7.45;;;;;;;;;;4969551;28;20380;-51
2023/08/12 11:29:46;;;;;;;15.70;7.57;;;;;;;;;;4969664;28;20023;-56
2023/08/12 11:32:12;;;;;;;15.80;7.63;;;;;;;;;;4968374;28;20023;-55
2023/08/12 11:34:38;;;;;;;16.25;6.80;;;;;;;;;;4969405;28;20487;-56
2023/08/12 11:37:04;;;;;;;15.90;6.80;;;;;;;;;;4969345;28;20031;-52
2023/08/12 11:39:30;;;;;;;14.70;6.60;;;;;;;;;;4969658;28;20475;-54
2023/08/12 11:41:57;;;;;;;13.90;6.05;;;;;;;;;;4969193;28;20045;-53
2023/08/12 11:44:23;;;;;;;13.52;6.25;;;;;;;;;;4962086;28;20491;-65
2023/08/12 11:46:50;;;;;;;14.70;6.40;;;;;;;;;;4965429;28;20035;-61
2023/08/12 11:49:16;;;;;;;15.00;7.15;;;;;;;;;;4965528;28;20034;-61
2023/08/12 11:51:43;;;;;;;14.60;6.95;;;;;;;;;;4969018;28;20080;-61
2023/08/12 11:54:09;;;;;;;14.45;6.10;;;;;;;;;;4969059;28;20023;-60
2023/08/12 11:56:35;;;;;;;15.13;7.10;;;;;;;;;;4968207;28;20453;-61
2023/08/12 11:59:01;;;;;;;15.73;7.60;;;;;;;;;;4969175;28;20038;-61
2023/08/12 12:01:28;;;;;;;16.55;7.65;;;;;;;;;;4968168;28;20031;-61
2023/08/12 12:03:54;;;;;;;15.63;7.40;;;;;;;;;;4969232;28;20049;-60
2023/08/12 12:06:30;;;;;;;14.10;6.38;;;;;;;;;;4969044;28;20073;-61
2023/08/12 12:08:56;;;;;;;16.13;7.55;;;;;;;;;;4969065;28;20054;-61
2023/08/12 12:11:22;;;;;;;15.20;7.25;;;;;;;;;;4969804;28;20099;-60
2023/08/12 12:13:48;;;;;;;16.13;7.95;;;;;;;;;;4969311;28;20039;-61
2023/08/12 12:16:16;;;;;;;16.80;7.97;;;;;;;;;;4968751;28;20391;-62
2023/08/12 12:18:42;;;;;;;17.98;8.57;;;;;;;;;;4967857;28;20031;-61
2023/08/12 12:21:09;;;;;;;16.90;9.48;;;;;;;;;;4622323;28;9999811;-61
2023/08/12 12:23:37;;;;;;;17.70;9.20;;;;;;;;;;4969450;28;20030;-60
2023/08/12 12:26:04;;;;;;;17.13;9.73;;;;;;;;;;4968641;28;20035;-61
2023/08/12 12:28:30;;;;;;;19.13;11.57;;;;;;;;;;4968124;28;20043;-61
2023/08/12 12:30:56;;;;;;;19.65;11.15;;;;;;;;;;4969683;28;20030;-61
2023/08/12 12:33:22;;;;;;;19.27;10.40;;;;;;;;;;4969005;28;20038;-61
2023/08/12 12:35:48;;;;;;;19.83;10.77;;;;;;;;;;4967549;28;20142;-62
2023/08/12 12:38:14;;;;;;;18.67;9.43;;;;;;;;;;4969371;28;20027;-61
2023/08/12 12:40:40;;;;;;;16.48;8.60;;;;;;;;;;4967936;28;20031;-61
2023/08/12 12:43:06;;;;;;;17.35;9.05;;;;;;;;;;4969022;28;20027;-61
2023/08/12 12:45:32;;;;;;;20.75;8.77;;;;;;;;;;4969249;28;20483;-60
2023/08/12 12:47:58;;;;;;;15.73;7.50;;;;;;;;;;4968727;28;20026;-61
2023/08/12 12:50:24;;;;;;;17.75;7.93;;;;;;;;;;4969375;28;20031;-61
2023/08/12 12:52:50;;;;;;;16.33;7.57;;;;;;;;;;4969043;28;20034;-61
2023/08/12 12:55:16;;;;;;;15.00;6.80;;;;;;;;;;4968734;28;20068;-61
2023/08/12 12:57:42;;;;;;;17.38;7.65;;;;;;;;;;4968810;28;20129;-61
2023/08/12 13:00:11;;;;;;;16.05;6.57;;;;;;;;;;4969710;28;20027;-61
2023/08/12 13:02:37;;;;;;;15.15;6.65;;;;;;;;;;4970165;28;20078;-59
2023/08/12 13:05:03;;;;;;;15.75;7.00;;;;;;;;;;4971966;28;20109;-60
2023/08/12 13:07:29;;;;;;;15.38;7.22;;;;;;;;;;4972232;28;20110;-62
2023/08/12 13:09:55;;;;;;;15.75;7.32;;;;;;;;;;4971859;28;20121;-60
2023/08/12 13:12:21;;;;;;;15.10;6.80;;;;;;;;;;4970897;28;20483;-61
2023/08/12 13:14:47;;;;;;;14.88;6.53;;;;;;;;;;4970288;28;20027;-61
2023/08/12 13:17:13;;;;;;;14.95;7.88;;;;;;;;;;4970605;28;20129;-61
2023/08/12 13:19:39;;;;;;;15.32;7.45;;;;;;;;;;4626616;28;10000493;-61
2023/08/12 13:22:05;;;;;;;18.38;8.35;;;;;;;;;;4968790;28;20026;-61
2023/08/12 13:24:31;;;;;;;17.38;8.20;;;;;;;;;;4967234;28;20084;-61
2023/08/12 13:26:57;;;;;;;15.75;7.55;;;;;;;;;;4968294;28;20131;-61
2023/08/12 13:29:23;;;;;;;16.23;8.13;;;;;;;;;;4967383;28;20027;-61
2023/08/12 13:31:49;;;;;;;15.30;7.50;;;;;;;;;;4968353;28;20051;-61
2023/08/12 13:34:16;;;;;;;16.90;8.30;;;;;;;;;;4968378;28;20057;-61
2023/08/12 13:36:42;;;;;;;16.73;7.82;;;;;;;;;;4968404;28;20027;-61
2023/08/12 13:39:08;;;;;;;16.60;7.78;;;;;;;;;;4968159;28;20034;-61
2023/08/12 13:41:34;;;;;;;16.38;7.50;;;;;;;;;;4968179;28;20560;-61
2023/08/12 13:44:00;;;;;;;16.58;7.40;;;;;;;;;;4968056;28;20138;-62
2023/08/12 13:46:26;;;;;;;14.43;6.80;;;;;;;;;;4966724;28;20031;-61
2023/08/12 13:48:53;;;;;;;13.93;6.68;;;;;;;;;;4967323;28;20033;-61
2023/08/12 13:51:19;;;;;;;15.15;7.18;;;;;;;;;;4967850;28;20521;-62
2023/08/12 13:53:45;;;;;;;16.40;7.97;;;;;;;;;;4966575;28;20026;-61
2023/08/12 13:56:11;;;;;;;14.27;7.30;;;;;;;;;;4967141;28;20034;-62
2023/08/12 13:58:37;;;;;;;15.23;7.20;;;;;;;;;;4967716;28;20479;-63
2023/08/12 14:01:03;;;;;;;15.93;7.95;;;;;;;;;;4965836;28;20403;-61
2023/08/12 14:03:30;;;;;;;15.40;8.18;;;;;;;;;;4965817;28;20040;-61
2023/08/12 14:05:56;;;;;;;14.98;7.38;;;;;;;;;;4966646;28;20030;-62
2023/08/12 14:08:22;;;;;;;16.05;7.55;;;;;;;;;;4968281;28;20506;-62
2023/08/12 14:10:50;;;;;;;16.33;7.57;;;;;;;;;;4966962;28;20026;-62
2023/08/12 14:13:16;;;;;;;15.75;7.45;;;;;;;;;;4968435;28;20041;-62
2023/08/12 14:15:42;;;;;;;15.52;7.72;;;;;;;;;;4968105;28;20140;-61